Time;durP1;ratioP1;P1;durP2;ratioP2;P2;SDS_P1;SDS_P2;PMS_P1;PMS_P2;Temp;Humidity;BMP_temperature;BMP_pressure;BME280_temperature;BME280_humidity;BME280_pressure;Samples;Min_cycle;Max_cycle;Signal;HPM_P1;HPM_P2
2022/10/17 00:01:34;;;;;;;8.98;1.40;;;;;;;9.46;79.53;100781.81;5115137;28;20027;-67
2022/10/17 00:03:59;;;;;;;4.03;0.90;;;;;;;9.49;79.08;100800.38;5096367;28;20031;-66
2022/10/17 00:06:25;;;;;;;4.10;0.57;;;;;;;9.47;79.53;100802.31;5096039;28;20534;-66
2022/10/17 00:08:51;;;;;;;3.72;0.68;;;;;;;9.56;79.17;100802.47;5114856;28;20035;-67
2022/10/17 00:11:19;;;;;;;6.07;1.45;;;;;;;9.65;78.45;100811.69;5114492;28;20023;-66
2022/10/17 00:13:46;;;;;;;3.63;0.63;;;;;;;9.63;78.84;100802.88;5096368;28;20172;-68
2022/10/17 00:16:13;;;;;;;11.48;1.55;;;;;;;9.60;78.85;100819.22;5096420;28;20027;-68
2022/10/17 00:18:39;;;;;;;8.13;1.60;;;;;;;9.63;79.26;100819.84;5096342;28;20043;-67
2022/10/17 00:21:04;;;;;;;6.18;0.77;;;;;;;9.65;78.85;100817.91;5095707;28;20133;-67
2022/10/17 00:23:30;;;;;;;4.10;0.68;;;;;;;9.73;78.67;100820.00;5114499;28;20063;-67
2022/10/17 00:26:04;;;;;;;6.97;0.80;;;;;;;9.76;78.64;100825.16;5096102;28;20034;-68
2022/10/17 00:28:31;;;;;;;4.88;0.77;;;;;;;9.78;78.40;100833.94;5114295;28;20023;-68
2022/10/17 00:30:59;;;;;;;9.82;1.02;;;;;;;9.85;78.26;100831.66;5095754;28;20510;-69
2022/10/17 00:33:26;;;;;;;2.40;0.52;;;;;;;9.93;77.64;100827.41;5095762;28;20020;-69
2022/10/17 00:36:07;;;;;;;8.25;1.55;;;;;;;9.95;78.17;100836.22;5114111;28;20399;-68
2022/10/17 00:38:33;;;;;;;4.22;1.25;;;;;;;9.95;78.12;100841.59;5096063;28;20117;-68
2022/10/17 00:40:59;;;;;;;4.78;0.90;;;;;;;10.00;77.63;100843.91;5095749;28;20027;-69
2022/10/17 00:43:25;;;;;;;2.90;0.55;;;;;;;10.08;77.12;100846.03;5095809;28;20408;-69
2022/10/17 00:45:51;;;;;;;6.40;1.00;;;;;;;10.11;77.28;100852.00;5095747;28;20036;-68
2022/10/17 00:48:18;;;;;;;7.13;1.05;;;;;;;10.09;77.83;100858.47;5113536;28;20050;-69
2022/10/17 00:50:47;;;;;;;6.15;1.48;;;;;;;10.10;77.43;100860.19;5113877;28;20043;-70
2022/10/17 00:53:14;;;;;;;3.92;0.52;;;;;;;10.15;77.50;100850.78;5095206;28;20043;-68
2022/10/17 00:55:49;;;;;;;8.57;1.23;;;;;;;10.18;77.92;100863.13;5113822;28;20107;-68
2022/10/17 00:58:16;;;;;;;6.85;1.20;;;;;;;10.23;77.30;100855.59;5095236;28;20043;-69
2022/10/17 01:00:42;;;;;;;14.50;1.25;;;;;;;10.26;77.36;100870.66;5095102;28;20027;-68
2022/10/17 01:03:08;;;;;;;5.20;1.23;;;;;;;10.26;77.69;100874.19;5095250;28;20053;-69
2022/10/17 01:05:34;;;;;;;5.28;1.00;;;;;;;10.30;77.38;100862.22;5095433;28;20031;-70
2022/10/17 01:08:00;;;;;;;9.98;2.17;;;;;;;10.26;77.62;100871.50;5113540;28;20472;-71
2022/10/17 01:10:33;;;;;;;6.20;1.27;;;;;;;10.27;78.04;100870.53;5113553;28;20058;-71
2022/10/17 01:13:25;;;;;;;13.30;1.42;;;;;;;10.34;77.88;100870.91;5113216;28;20028;-71
2022/10/17 01:15:58;;;;;;;7.40;1.30;;;;;;;10.34;77.66;100885.19;5095324;28;20387;-71
2022/10/17 01:19:00;;;;;;;8.27;1.13;;;;;;;10.34;76.97;100887.88;5095175;28;20059;-70
2022/10/17 01:21:49;;;;;;;9.05;1.73;;;;;;;10.29;77.71;100897.28;5094826;28;20498;-71
2022/10/17 01:24:36;;;;;;;3.80;1.40;;;;;;;10.36;77.75;100893.13;5113114;28;20107;-70
2022/10/17 01:27:28;;;;;;;7.53;1.17;;;;;;;10.44;76.55;100898.78;5094683;28;20032;-71
2022/10/17 01:30:25;;;;;;;5.78;1.23;;;;;;;10.46;76.85;100912.97;5094595;28;20031;-71
2022/10/17 01:33:02;;;;;;;10.23;2.40;;;;;;;10.49;76.47;100892.06;5094818;28;20074;-69
2022/10/17 01:35:38;;;;;;;5.32;1.05;;;;;;;10.51;76.59;100906.25;5113018;28;20038;-71
2022/10/17 01:38:25;;;;;;;7.88;1.45;;;;;;;10.51;76.94;100911.63;5094576;28;20040;-70
2022/10/17 01:40:57;;;;;;;7.32;0.80;;;;;;;10.55;76.23;100931.91;5094716;28;20122;-72
2022/10/17 01:43:46;;;;;;;9.73;1.17;;;;;;;10.58;76.54;100935.34;5112914;28;20042;-71
2022/10/17 01:46:45;;;;;;;12.20;1.85;;;;;;;10.60;76.10;100928.91;5094502;28;20038;-70
2022/10/17 01:49:14;;;;;;;11.82;1.30;;;;;;;10.61;75.77;100943.19;5094230;28;20027;-72
2022/10/17 01:51:45;;;;;;;6.38;1.75;;;;;;;10.67;75.73;100950.78;5094447;28;20039;-71
2022/10/17 01:54:22;;;;;;;11.27;1.48;;;;;;;10.68;75.00;100945.28;5112637;28;20036;-71
2022/10/17 01:56:51;;;;;;;10.05;1.70;;;;;;;10.60;75.73;100954.91;5112556;28;20104;-73
2022/10/17 01:59:22;;;;;;;4.28;0.93;;;;;;;10.66;75.51;100965.19;5112356;28;20137;-71
2022/10/17 02:01:51;;;;;;;14.32;1.95;;;;;;;10.66;75.17;100959.81;5094441;28;20039;-72
2022/10/17 02:04:17;;;;;;;9.23;1.13;;;;;;;10.73;75.00;100967.28;5094314;28;20032;-70
2022/10/17 02:06:44;;;;;;;11.57;1.77;;;;;;;10.74;75.48;100969.00;5094579;28;20042;-73
2022/10/17 02:09:24;;;;;;;10.27;1.50;;;;;;;10.73;74.72;100977.19;5093962;28;20038;-72
2022/10/17 02:12:28;;;;;;;5.53;1.83;;;;;;;10.77;75.35;100982.22;5112524;28;20030;-72
2022/10/17 02:15:12;;;;;;;8.05;1.58;;;;;;;10.77;75.04;100986.75;5112348;28;20039;-73
2022/10/17 02:17:47;;;;;;;8.32;1.52;;;;;;;10.75;74.67;101002.13;5112325;28;20032;-73
2022/10/17 02:20:30;;;;;;;7.78;1.90;;;;;;;10.77;74.25;100994.81;5094307;28;20399;-72
2022/10/17 02:22:55;;;;;;;9.35;1.70;;;;;;;10.75;75.03;101019.16;5094289;28;20080;-72
2022/10/17 02:25:41;;;;;;;7.85;1.60;;;;;;;10.77;75.24;101021.72;5112297;28;20381;-70
2022/10/17 02:28:20;;;;;;;6.28;1.65;;;;;;;10.76;74.72;100993.09;5112551;28;20020;-73
2022/10/17 02:30:57;;;;;;;12.77;2.15;;;;;;;10.69;74.71;101008.84;5112795;28;20058;-72
2022/10/17 02:33:52;;;;;;;10.35;1.20;;;;;;;10.69;74.46;101007.97;5094181;28;20028;-72
2022/10/17 02:36:25;;;;;;;3.30;0.90;;;;;;;10.65;74.72;101028.00;5072328;28;20559;-73
2022/10/17 02:38:54;;;;;;;9.27;1.90;;;;;;;10.61;75.39;101040.00;5094124;28;20075;-72
2022/10/17 02:41:22;;;;;;;6.47;1.70;;;;;;;10.55;75.62;101043.97;5093905;28;20050;-73
2022/10/17 02:43:49;;;;;;;5.82;0.75;;;;;;;10.55;75.19;101041.28;5093968;28;20029;-74
2022/10/17 02:46:22;;;;;;;4.25;0.73;;;;;;;10.46;76.08;101050.06;5112393;28;20038;-73
2022/10/17 02:48:58;;;;;;;8.23;0.80;;;;;;;10.41;75.73;101058.47;5112273;28;20027;-72
2022/10/17 02:51:36;;;;;;;6.82;1.35;;;;;;;10.31;76.38;101049.38;5112449;28;20106;-73
2022/10/17 02:54:30;;;;;;;13.68;2.20;;;;;;;10.29;76.48;101054.00;5094120;28;20123;-74
2022/10/17 02:57:22;;;;;;;8.40;1.37;;;;;;;10.28;76.28;101068.41;5093295;28;20031;-73
2022/10/17 02:59:49;;;;;;;8.65;2.05;;;;;;;10.14;77.13;101071.22;5089087;28;20082;-73
2022/10/17 03:02:15;;;;;;;11.18;1.75;;;;;;;10.03;77.44;101079.19;5094002;28;20088;-75
2022/10/17 03:04:45;;;;;;;12.38;1.60;;;;;;;10.03;77.50;101089.94;5112365;28;20036;-71
2022/10/17 03:07:11;;;;;;;7.80;1.52;;;;;;;10.11;77.19;101072.31;5093611;28;20034;-72
2022/10/17 03:09:36;;;;;;;10.07;1.70;;;;;;;10.02;77.62;101091.78;5112103;28;20039;-72
2022/10/17 03:12:03;;;;;;;9.30;1.50;;;;;;;10.04;77.39;101091.66;5096550;28;20126;-72
2022/10/17 03:14:28;;;;;;;18.00;2.05;;;;;;;10.02;77.80;101089.09;5097612;28;20031;-72
2022/10/17 03:16:54;;;;;;;9.30;2.50;;;;;;;9.89;78.24;101094.47;5097783;28;20031;-72
2022/10/17 03:19:19;;;;;;;15.10;1.80;;;;;;;9.95;77.90;101107.50;5097163;28;20027;-72
2022/10/17 03:21:45;;;;;;;7.82;1.75;;;;;;;9.84;78.34;101106.53;5097472;28;20036;-72
2022/10/17 03:24:11;;;;;;;11.02;1.92;;;;;;;9.89;78.21;101107.06;5097058;28;20038;-72
2022/10/17 03:26:36;;;;;;;3.75;0.55;;;;;;;9.93;78.18;101122.84;5115665;28;20130;-72
2022/10/17 03:29:03;;;;;;;11.05;1.52;;;;;;;9.75;78.71;101108.06;5097097;28;20068;-73
2022/10/17 03:31:28;;;;;;;11.45;2.05;;;;;;;9.79;78.95;101125.66;5097263;28;20034;-73
2022/10/17 03:33:54;;;;;;;9.30;1.38;;;;;;;9.77;78.64;101135.66;5096859;28;20027;-71
2022/10/17 03:36:20;;;;;;;11.13;1.98;;;;;;;9.81;78.29;101133.63;5115339;28;20038;-72
2022/10/17 03:38:46;;;;;;;13.43;2.60;;;;;;;9.71;78.85;101141.44;5115067;28;20034;-74
2022/10/17 03:41:12;;;;;;;7.38;1.63;;;;;;;9.75;79.05;101140.28;5096305;28;20037;-73
2022/10/17 03:43:38;;;;;;;6.78;1.60;;;;;;;9.77;78.77;101149.09;5097023;28;20160;-72
2022/10/17 03:46:05;;;;;;;9.43;1.08;;;;;;;9.82;79.02;101172.91;5115180;28;20070;-73
2022/10/17 03:48:31;;;;;;;9.48;1.55;;;;;;;9.76;78.68;101171.53;5114986;28;20028;-73
2022/10/17 03:51:06;;;;;;;13.25;2.35;;;;;;;9.69;79.15;101172.91;5115071;28;20027;-73
2022/10/17 03:53:32;;;;;;;;;;;;;;;9.73;78.71;101182.47;5115690;28;20073;-72
2022/10/17 03:56:14;;;;;;;9.98;1.45;;;;;;;9.67;79.36;101185.59;5115686;28;19912;-74
2022/10/17 03:58:41;;;;;;;8.30;1.88;;;;;;;9.54;80.18;101176.66;5076355;28;20053;-72
2022/10/17 04:01:09;;;;;;;11.15;1.60;;;;;;;9.69;79.80;101194.41;5074069;28;20488;-72
2022/10/17 04:03:35;;;;;;;6.82;1.15;;;;;;;9.72;79.60;101204.91;5073877;28;20365;-72
2022/10/17 04:06:02;;;;;;;7.78;1.45;;;;;;;9.60;79.95;101200.41;5072210;28;20115;-72
2022/10/17 04:08:29;;;;;;;11.43;1.48;;;;;;;9.70;79.66;101217.59;5072458;28;20085;-72
2022/10/17 04:10:58;;;;;;;8.02;1.50;;;;;;;9.70;79.14;101222.09;5074166;28;20129;-72
2022/10/17 04:13:24;;;;;;;8.77;1.15;;;;;;;9.70;79.37;101222.09;5072481;28;20021;-72
2022/10/17 04:15:58;;;;;;;15.15;1.45;;;;;;;9.72;79.18;101226.41;5073889;28;20031;-73
2022/10/17 04:18:23;;;;;;;7.97;1.20;;;;;;;9.70;78.64;101236.38;5072485;28;20475;-75
2022/10/17 04:20:49;;;;;;;8.25;1.88;;;;;;;9.63;78.99;101245.84;5071996;28;20078;-73
2022/10/17 04:23:15;;;;;;;9.98;1.65;;;;;;;9.60;79.43;101238.00;5071283;28;20031;-73
2022/10/17 04:25:40;;;;;;;16.52;2.05;;;;;;;9.54;79.27;101243.78;5072332;28;20486;-74
2022/10/17 04:28:06;;;;;;;8.65;1.77;;;;;;;9.64;79.46;101253.78;5071926;28;20025;-73
2022/10/17 04:30:32;;;;;;;20.52;2.40;;;;;;;9.63;79.02;101256.59;5072912;28;20397;-75
2022/10/17 04:32:57;;;;;;;15.32;1.60;;;;;;;9.55;79.75;101264.28;5072835;28;20378;-74
2022/10/17 04:35:23;;;;;;;11.23;1.60;;;;;;;9.58;79.76;101261.41;5071887;28;20025;-73
2022/10/17 04:37:49;;;;;;;12.60;1.83;;;;;;;9.65;79.03;101268.06;5072739;28;20031;-76
2022/10/17 04:40:14;;;;;;;9.38;1.25;;;;;;;9.69;78.75;101258.84;5073101;28;20157;-74
2022/10/17 04:42:40;;;;;;;14.25;2.40;;;;;;;9.62;79.26;101257.56;5071785;28;20041;-74
2022/10/17 04:45:06;;;;;;;4.20;0.77;;;;;;;9.65;78.73;101268.94;5072674;28;20028;-73
2022/10/17 04:47:33;;;;;;;17.92;1.63;;;;;;;9.64;78.59;101282.47;5073084;28;20063;-72
2022/10/17 04:49:59;;;;;;;9.32;1.45;;;;;;;9.57;78.92;101286.50;5071414;28;20029;-72
2022/10/17 04:52:24;;;;;;;6.55;1.42;;;;;;;9.55;79.11;101305.41;5071821;28;20067;-73
2022/10/17 04:54:50;;;;;;;15.90;1.55;;;;;;;9.60;78.62;101316.72;5071355;28;20044;-73
2022/10/17 04:57:17;;;;;;;11.30;1.83;;;;;;;9.68;78.38;101321.56;5071046;28;20627;-71
2022/10/17 04:59:43;;;;;;;8.32;1.25;;;;;;;9.55;79.17;101323.34;5071299;28;20423;-71
2022/10/17 05:02:08;;;;;;;7.00;1.15;;;;;;;9.59;78.35;101324.88;5072791;28;20032;-73
2022/10/17 05:04:34;;;;;;;13.57;1.60;;;;;;;9.44;78.66;101337.50;5071455;28;20469;-73
2022/10/17 05:07:00;;;;;;;10.00;1.27;;;;;;;9.47;78.98;101349.84;5072799;28;20111;-74
2022/10/17 05:09:26;;;;;;;13.52;1.30;;;;;;;9.52;78.69;101347.72;5073392;28;20020;-74
2022/10/17 05:11:52;;;;;;;14.93;2.10;;;;;;;9.49;78.85;101358.66;5072323;28;20032;-74
2022/10/17 05:14:17;;;;;;;5.80;1.55;;;;;;;9.38;79.19;101358.50;5072339;28;20035;-74
2022/10/17 05:16:43;;;;;;;13.55;1.60;;;;;;;9.42;79.36;101357.34;5072100;28;20037;-74
2022/10/17 05:19:10;;;;;;;11.57;1.77;;;;;;;9.34;79.56;101364.06;5070749;28;20111;-73
2022/10/17 05:21:36;;;;;;;9.27;1.42;;;;;;;9.33;79.05;101366.84;5071449;28;20033;-75
2022/10/17 05:24:05;;;;;;;7.68;1.25;;;;;;;9.36;79.23;101369.31;5070850;28;20032;-74
2022/10/17 05:26:31;;;;;;;10.93;1.85;;;;;;;9.32;79.45;101382.09;5070701;28;20031;-74
2022/10/17 05:28:59;;;;;;;15.98;1.40;;;;;;;9.39;79.18;101384.38;5071530;28;20029;-74
2022/10/17 05:31:25;;;;;;;10.60;2.00;;;;;;;9.32;79.59;101383.91;5070219;28;20028;-73
2022/10/17 05:33:50;;;;;;;7.35;1.63;;;;;;;9.37;79.16;101387.16;5071513;28;20043;-73
2022/10/17 05:36:16;;;;;;;7.95;1.63;;;;;;;9.51;78.37;101388.94;5071019;28;20033;-74
2022/10/17 05:38:42;;;;;;;10.10;1.60;;;;;;;9.42;78.63;101390.41;5071721;28;20357;-74
2022/10/17 05:41:09;;;;;;;13.25;2.72;;;;;;;9.44;78.97;101398.38;5070926;28;20039;-72
2022/10/17 05:43:34;;;;;;;10.07;1.52;;;;;;;9.43;78.67;101410.06;5069541;28;20040;-75
2022/10/17 05:46:04;;;;;;;9.32;2.40;;;;;;;9.30;79.55;101412.69;5070603;28;20021;-75
2022/10/17 05:48:30;;;;;;;9.60;1.25;;;;;;;9.33;79.15;101402.59;5070203;28;20029;-75
2022/10/17 05:51:04;;;;;;;12.05;1.90;;;;;;;9.41;78.98;101423.59;5071286;28;20047;-74
2022/10/17 05:53:32;;;;;;;12.82;3.13;;;;;;;9.37;79.67;101430.09;5069731;28;20401;-74
2022/10/17 05:56:00;;;;;;;7.63;1.85;;;;;;;9.46;79.29;101440.25;5069580;28;20033;-74
2022/10/17 05:58:27;;;;;;;12.73;1.77;;;;;;;9.52;78.89;101430.94;5069671;28;20122;-75
2022/10/17 06:00:58;;;;;;;11.35;1.60;;;;;;;9.45;79.89;101448.41;5071447;28;20054;-75
2022/10/17 06:03:23;;;;;;;13.15;1.80;;;;;;;9.44;79.64;101452.03;5071339;28;20081;-75
2022/10/17 06:05:50;;;;;;;10.27;1.77;;;;;;;9.50;79.34;101451.63;5069355;28;20033;-74
2022/10/17 06:08:16;;;;;;;12.32;2.05;;;;;;;9.41;80.20;101458.47;5069649;28;20024;-75
2022/10/17 06:10:42;;;;;;;15.00;2.85;;;;;;;9.50;79.55;101457.00;5071071;28;20020;-74
2022/10/17 06:13:07;;;;;;;12.98;2.53;;;;;;;9.39;80.09;101462.19;5071910;28;20505;-74
2022/10/17 06:15:33;;;;;;;12.25;2.22;;;;;;;9.39;80.42;101465.75;5070644;28;20028;-76
2022/10/17 06:17:59;;;;;;;11.00;1.27;;;;;;;9.34;80.20;101471.41;5072394;28;20174;-76
2022/10/17 06:20:25;;;;;;;8.57;1.75;;;;;;;9.41;79.84;101468.34;5070820;28;20452;-75
2022/10/17 06:22:50;;;;;;;9.20;1.40;;;;;;;9.47;80.05;101473.31;5069905;28;20024;-74
2022/10/17 06:25:16;;;;;;;8.23;1.17;;;;;;;9.46;80.11;101482.34;5069293;28;20042;-75
2022/10/17 06:27:41;;;;;;;10.82;1.58;;;;;;;9.47;79.83;101478.69;5070966;28;20032;-75
2022/10/17 06:30:07;;;;;;;12.15;2.60;;;;;;;9.54;80.09;101485.38;5069449;28;20195;-76
2022/10/17 06:32:33;;;;;;;8.13;2.30;;;;;;;9.61;79.41;101494.78;5071123;28;20106;-75
2022/10/17 06:34:59;;;;;;;11.13;2.00;;;;;;;9.68;79.13;101492.53;5068805;28;20041;-76
2022/10/17 06:37:24;;;;;;;11.85;1.27;;;;;;;9.66;79.39;101492.66;5070488;28;20498;-76
2022/10/17 06:39:50;;;;;;;9.45;2.00;;;;;;;9.66;79.80;101503.38;5068605;28;20039;-73
2022/10/17 06:42:16;;;;;;;6.85;1.50;;;;;;;9.72;79.63;101511.03;5068679;28;20354;-75
2022/10/17 06:44:41;;;;;;;14.18;2.08;;;;;;;9.70;79.83;101515.66;5071377;28;20033;-74
2022/10/17 06:47:08;;;;;;;20.23;2.15;;;;;;;9.75;79.30;101526.13;5074129;28;20401;-74
2022/10/17 06:49:34;;;;;;;16.80;1.95;;;;;;;9.85;79.49;101517.34;5073285;28;20029;-75
2022/10/17 06:52:00;;;;;;;9.77;1.77;;;;;;;10.05;78.66;101533.97;5073147;28;20037;-74
2022/10/17 06:54:26;;;;;;;10.70;1.80;;;;;;;10.09;77.97;101546.28;5074464;28;20032;-73
2022/10/17 06:56:52;;;;;;;9.00;1.20;;;;;;;10.16;77.51;101536.81;5077566;28;20131;-74
2022/10/17 06:59:18;;;;;;;9.85;1.45;;;;;;;10.13;77.82;101547.78;5115533;28;20096;-74
2022/10/17 07:01:44;;;;;;;10.80;1.80;;;;;;;10.12;78.07;101556.81;5114972;28;20458;-73
2022/10/17 07:04:10;;;;;;;8.90;1.50;;;;;;;10.30;77.24;101550.25;5115195;28;20115;-74
2022/10/17 07:06:36;;;;;;;11.68;1.58;;;;;;;10.45;76.90;101565.38;5116284;28;20059;-74
2022/10/17 07:09:02;;;;;;;11.63;2.50;;;;;;;10.50;76.88;101573.97;5097037;28;20031;-72
2022/10/17 07:11:27;;;;;;;6.90;1.42;;;;;;;10.60;75.95;101578.75;5115339;28;20387;-73
2022/10/17 07:13:53;;;;;;;6.60;1.45;;;;;;;10.42;76.27;101591.59;5097031;28;20031;-73
2022/10/17 07:16:20;;;;;;;13.77;1.88;;;;;;;10.35;76.55;101592.94;5115762;28;20063;-73
2022/10/17 07:18:48;;;;;;;10.60;1.80;;;;;;;10.41;76.34;101598.81;5096343;28;20028;-71
2022/10/17 07:21:14;;;;;;;11.77;2.92;;;;;;;10.41;75.51;101595.22;5114385;28;20035;-73
2022/10/17 07:23:40;;;;;;;9.00;1.33;;;;;;;10.31;76.49;101597.66;5115231;28;20433;-72
2022/10/17 07:26:09;;;;;;;7.40;1.20;;;;;;;10.29;76.84;101602.28;5114857;28;20027;-71
2022/10/17 07:28:37;;;;;;;11.30;2.20;;;;;;;10.34;76.27;101605.53;5115058;28;20057;-74
2022/10/17 07:31:05;;;;;;;6.13;1.70;;;;;;;10.34;76.57;101608.22;5114661;28;20028;-72
2022/10/17 07:33:31;;;;;;;10.95;2.60;;;;;;;10.31;76.74;101611.09;5096163;28;20036;-72
2022/10/17 07:35:59;;;;;;;11.35;2.08;;;;;;;10.37;75.91;101613.38;5098347;28;20153;-72
2022/10/17 07:38:25;;;;;;;8.68;2.13;;;;;;;10.48;76.18;101616.22;5104264;28;20031;-71
2022/10/17 07:40:58;;;;;;;7.78;1.98;;;;;;;10.60;75.27;101627.16;5101543;28;20476;-72
2022/10/17 07:43:24;;;;;;;10.68;1.77;;;;;;;10.69;74.77;101605.00;5096148;28;20023;-71
2022/10/17 07:45:50;;;;;;;8.35;1.83;;;;;;;10.81;73.74;101620.31;5115168;28;20028;-72
2022/10/17 07:48:17;;;;;;;8.73;1.88;;;;;;;11.16;73.67;101626.00;5114738;28;20038;-71
2022/10/17 07:50:44;;;;;;;8.80;1.50;;;;;;;11.09;73.31;101641.72;5114272;28;20073;-71
2022/10/17 07:53:09;;;;;;;8.85;1.58;;;;;;;11.20;71.99;101648.16;5114981;28;20024;-71
2022/10/17 07:55:39;;;;;;;4.63;1.35;;;;;;;11.84;70.86;101643.69;5114306;28;20153;-71
2022/10/17 07:58:05;;;;;;;9.15;1.40;;;;;;;12.15;69.08;101658.53;5113022;28;20047;-72
2022/10/17 08:00:31;;;;;;;10.35;1.50;;;;;;;12.47;68.55;101672.38;5114475;28;20016;-72
2022/10/17 08:02:57;;;;;;;8.93;2.28;;;;;;;12.07;69.43;101682.47;5113774;28;20031;-72
2022/10/17 08:05:22;;;;;;;6.82;1.65;;;;;;;11.61;70.52;101680.31;5095757;28;20031;-71
2022/10/17 08:07:48;;;;;;;8.98;1.50;;;;;;;11.88;70.68;101685.63;5095861;28;20054;-71
2022/10/17 08:10:14;;;;;;;8.55;2.10;;;;;;;11.85;69.63;101686.69;5096242;28;20540;-70
2022/10/17 08:12:41;;;;;;;9.93;2.03;;;;;;;11.42;71.27;101696.88;5114300;28;20031;-70
2022/10/17 08:15:07;;;;;;;7.05;1.40;;;;;;;11.36;71.64;101700.00;5095812;28;20118;-70
2022/10/17 08:17:34;;;;;;;8.07;1.70;;;;;;;11.17;72.09;101704.91;5095721;28;20130;-70
2022/10/17 08:20:00;;;;;;;7.55;1.60;;;;;;;11.36;71.82;101695.47;5113342;28;20030;-69
2022/10/17 08:22:26;;;;;;;11.95;2.33;;;;;;;11.19;72.34;101689.53;5113222;28;20441;-69
2022/10/17 08:24:51;;;;;;;11.52;2.70;;;;;;;11.18;72.58;101704.81;5113634;28;20032;-69
2022/10/17 08:27:22;;;;;;;10.68;1.85;;;;;;;11.22;72.92;101700.06;5113170;28;20042;-69
2022/10/17 08:29:51;;;;;;;6.82;2.05;;;;;;;11.28;72.83;101699.66;5113460;28;20028;-68
2022/10/17 08:32:23;;;;;;;5.20;1.63;;;;;;;11.32;72.43;101714.63;5095447;28;20035;-70
2022/10/17 08:34:49;;;;;;;8.25;1.58;;;;;;;11.20;72.53;101712.78;5113432;28;20452;-69
2022/10/17 08:37:15;;;;;;;9.50;1.70;;;;;;;11.28;72.57;101726.59;5095176;28;20022;-69
2022/10/17 08:39:41;;;;;;;8.38;1.40;;;;;;;11.39;71.88;101716.78;5113089;28;20495;-71
2022/10/17 08:42:49;;;;;;;15.40;2.88;;;;;;;11.40;72.07;101720.34;5095063;28;20031;-70
2022/10/17 08:45:30;;;;;;;9.48;2.70;;;;;;;11.53;72.36;101721.25;5113396;28;20028;-68
2022/10/17 08:48:03;;;;;;;8.52;1.80;;;;;;;11.45;71.51;101720.91;5095128;28;20118;-70
2022/10/17 08:50:51;;;;;;;5.18;1.65;;;;;;;11.48;71.84;101736.88;5113486;28;20020;-70
2022/10/17 08:53:38;;;;;;;6.95;2.05;;;;;;;11.63;71.21;101743.91;5113253;28;20031;-70
2022/10/17 08:56:17;;;;;;;11.02;2.65;;;;;;;12.33;68.21;101743.47;5094781;28;20045;-70
2022/10/17 08:58:43;;;;;;;11.52;1.73;;;;;;;12.24;68.55;101758.47;5094317;28;20059;-71
2022/10/17 09:01:17;;;;;;;6.63;1.77;;;;;;;12.74;66.88;101753.94;5111931;28;20400;-70
2022/10/17 09:04:20;;;;;;;7.20;1.23;;;;;;;13.22;66.22;101759.41;5094516;28;20104;-68
2022/10/17 09:07:13;;;;;;;6.57;1.33;;;;;;;12.94;66.23;101766.84;5112942;28;20032;-68
2022/10/17 09:10:27;;;;;;;8.05;2.72;;;;;;;13.08;65.96;101765.81;5100640;28;20036;-68
2022/10/17 09:13:37;;;;;;;6.35;2.03;;;;;;;13.09;65.00;101769.38;5103745;28;20039;-68
2022/10/17 09:16:24;;;;;;;13.40;2.55;;;;;;;13.03;65.02;101765.28;5065219;28;20039;-68
2022/10/17 09:19:02;;;;;;;12.95;1.40;;;;;;;13.06;64.70;101786.66;5112992;28;20040;-68
2022/10/17 09:21:48;;;;;;;7.85;2.00;;;;;;;12.83;65.46;101782.97;5093934;28;20038;-69
2022/10/17 09:24:24;;;;;;;7.40;2.03;;;;;;;13.40;64.28;101776.91;5112588;28;20031;-67
2022/10/17 09:26:51;;;;;;;7.85;1.73;;;;;;;13.52;63.36;101777.81;5112358;28;20027;-68
2022/10/17 09:29:25;;;;;;;8.05;2.25;;;;;;;14.16;61.92;101778.22;5093926;28;20063;-68
2022/10/17 09:32:02;;;;;;;10.15;1.83;;;;;;;13.78;62.45;101784.81;5112462;28;20023;-68
2022/10/17 09:34:30;;;;;;;8.40;2.30;;;;;;;14.25;60.84;101773.91;5093611;28;20059;-67
2022/10/17 09:37:01;;;;;;;8.95;1.42;;;;;;;14.59;59.61;101791.91;5112086;28;20080;-69
2022/10/17 09:39:31;;;;;;;3.65;1.50;;;;;;;13.59;62.14;101789.88;5094188;28;20118;-68
2022/10/17 09:41:59;;;;;;;9.60;1.90;;;;;;;14.05;60.88;101798.00;5093769;28;20055;-67
2022/10/17 09:44:34;;;;;;;6.28;1.60;;;;;;;13.71;62.38;101799.75;5112266;28;20035;-68
2022/10/17 09:47:40;;;;;;;6.82;1.92;;;;;;;13.59;61.86;101802.53;5093802;28;20506;-66
2022/10/17 09:50:19;;;;;;;8.45;1.77;;;;;;;13.80;61.81;101800.91;5060864;28;20039;-67
2022/10/17 09:52:48;;;;;;;4.90;1.60;;;;;;;13.51;62.28;101809.38;5112067;28;20035;-68
2022/10/17 09:55:46;;;;;;;7.78;1.73;;;;;;;13.33;63.38;101807.22;5093217;28;20070;-65
2022/10/17 09:58:12;;;;;;;7.03;1.60;;;;;;;13.00;64.04;101808.72;5110885;28;20043;-66
2022/10/17 10:00:43;;;;;;;5.13;1.83;;;;;;;12.89;64.20;101814.91;5093408;28;20035;-67
2022/10/17 10:03:11;;;;;;;4.88;1.40;;;;;;;12.81;63.96;101825.41;5093127;28;20476;-66
2022/10/17 10:05:38;;;;;;;9.07;1.92;;;;;;;12.93;63.61;101827.22;5093500;28;20110;-68
2022/10/17 10:08:15;;;;;;;6.07;2.20;;;;;;;13.20;63.01;101826.16;5111709;28;20527;-68
2022/10/17 10:10:42;;;;;;;7.68;1.65;;;;;;;13.10;63.69;101820.56;5111468;28;20024;-68
2022/10/17 10:13:13;;;;;;;10.38;2.42;;;;;;;13.20;64.47;101832.44;5111343;28;20047;-65
2022/10/17 10:15:42;;;;;;;11.15;1.80;;;;;;;13.65;63.12;101831.81;5092810;28;20043;-66
2022/10/17 10:18:26;;;;;;;13.68;2.28;;;;;;;14.36;59.92;101833.44;5111205;28;20055;-66
2022/10/17 10:21:19;;;;;;;8.15;1.63;;;;;;;14.29;60.19;101840.34;5095174;28;20108;-66
2022/10/17 10:24:11;;;;;;;7.00;1.98;;;;;;;14.52;59.62;101820.47;5099765;28;20051;-67
2022/10/17 10:26:42;;;;;;;7.50;2.08;;;;;;;14.95;57.39;101841.38;5118116;28;20031;-65
2022/10/17 10:29:22;;;;;;;8.07;2.22;;;;;;;14.30;59.05;101828.53;5099141;28;20031;-66
2022/10/17 10:31:49;;;;;;;7.05;1.63;;;;;;;14.13;59.34;101829.88;5118164;27;20027;-67
2022/10/17 10:34:20;;;;;;;10.02;1.55;;;;;;;13.83;60.44;101843.91;5118207;28;20038;-66
2022/10/17 10:37:04;;;;;;;4.57;1.70;;;;;;;14.22;59.50;101834.53;5117931;27;20031;-66
2022/10/17 10:39:38;;;;;;;4.38;1.30;;;;;;;13.78;59.20;101843.41;5118507;28;20039;-67
2022/10/17 10:42:08;;;;;;;5.85;1.83;;;;;;;13.85;59.76;101844.66;5099232;28;20404;-66
2022/10/17 10:44:38;;;;;;;4.15;1.30;;;;;;;13.81;59.11;101853.97;5118167;28;20028;-67
2022/10/17 10:47:08;;;;;;;7.22;1.25;;;;;;;14.23;57.30;101848.91;5099688;28;20149;-66
2022/10/17 10:49:34;;;;;;;5.07;1.58;;;;;;;14.27;58.40;101845.00;5118071;28;20031;-65
2022/10/17 10:52:02;;;;;;;6.03;1.27;;;;;;;13.82;59.34;101845.75;5099473;28;20120;-66
2022/10/17 10:54:35;;;;;;;8.18;1.40;;;;;;;13.81;59.49;101848.56;5118161;28;20114;-66
2022/10/17 10:57:06;;;;;;;7.70;1.77;;;;;;;13.86;60.23;101851.78;5117445;28;20031;-67
2022/10/17 10:59:34;;;;;;;6.57;1.25;;;;;;;13.94;60.19;101854.78;5117720;28;20030;-66
2022/10/17 11:02:17;;;;;;;13.05;8.15;;;;;;;13.76;59.22;101853.44;5099878;28;20031;-66
2022/10/17 11:05:28;;;;;;;9.13;1.10;;;;;;;13.48;59.53;101857.41;5099553;28;20119;-66
2022/10/17 11:08:04;;;;;;;3.80;0.63;;;;;;;13.27;59.68;101854.47;5093561;28;20096;-66
2022/10/17 11:10:43;;;;;;;6.35;1.30;;;;;;;13.02;61.49;101865.28;5118490;28;20047;-66
2022/10/17 11:13:16;;;;;;;4.95;1.13;;;;;;;12.93;61.09;101862.31;5117608;28;20153;-66
2022/10/17 11:16:08;;;;;;;6.43;2.38;;;;;;;13.12;60.18;101860.97;5117914;28;20491;-66
2022/10/17 11:18:46;;;;;;;3.55;1.05;;;;;;;13.30;60.48;101851.53;5071657;28;20409;-66
2022/10/17 11:21:37;;;;;;;8.32;1.48;;;;;;;13.19;60.18;101851.44;5117694;28;20023;-66
2022/10/17 11:24:23;;;;;;;8.05;1.27;;;;;;;13.16;59.67;101857.06;5117882;28;20533;-66
2022/10/17 11:26:59;;;;;;;10.30;2.50;;;;;;;13.18;59.84;101858.69;5117655;28;20069;-67
2022/10/17 11:29:30;;;;;;;6.40;1.17;;;;;;;13.30;59.50;101848.84;5098896;28;20059;-66
2022/10/17 11:31:59;;;;;;;6.45;0.82;;;;;;;13.45;58.83;101853.09;5117325;28;20035;-67
2022/10/17 11:34:29;;;;;;;7.18;1.40;;;;;;;13.21;59.56;101855.75;5096206;28;20035;-68
2022/10/17 11:37:23;;;;;;;4.18;1.30;;;;;;;13.34;59.67;101855.72;5096247;28;20449;-66
2022/10/17 11:39:55;;;;;;;7.00;1.73;;;;;;;13.39;58.92;101850.81;5086843;28;20035;-65
2022/10/17 11:42:27;;;;;;;6.95;1.35;;;;;;;13.43;58.80;101844.22;5096051;28;20020;-67
2022/10/17 11:45:00;;;;;;;5.50;1.40;;;;;;;13.39;58.19;101842.72;5095736;28;20035;-65
2022/10/17 11:47:44;;;;;;;8.95;1.10;;;;;;;13.33;58.01;101843.19;5096060;28;20039;-67